sensor_id;sensor_type;location;lat;lon;timestamp;temperature;humidity
17437;DHT22;73152;52.198;5.422;2023-11-18T00:01:39;20.50;51.00
17437;DHT22;73152;52.198;5.422;2023-11-18T00:04:09;20.50;51.00
17437;DHT22;73152;52.198;5.422;2023-11-18T00:06:41;20.50;51.00
17437;DHT22;73152;52.198;5.422;2023-11-18T00:09:13;20.40;51.10
17437;DHT22;73152;52.198;5.422;2023-11-18T00:11:42;20.40;51.00
17437;DHT22;73152;52.198;5.422;2023-11-18T00:14:11;20.50;51.00
17437;DHT22;73152;52.198;5.422;2023-11-18T00:16:40;20.40;51.00
17437;DHT22;73152;52.198;5.422;2023-11-18T00:19:09;20.40;51.00
17437;DHT22;73152;52.198;5.422;2023-11-18T00:21:38;20.50;51.00
17437;DHT22;73152;52.198;5.422;2023-11-18T00:24:08;20.40;51.10
17437;DHT22;73152;52.198;5.422;2023-11-18T00:26:41;20.40;51.10
17437;DHT22;73152;52.198;5.422;2023-11-18T00:29:10;20.40;51.10
17437;DHT22;73152;52.198;5.422;2023-11-18T00:31:39;20.40;51.10
17437;DHT22;73152;52.198;5.422;2023-11-18T00:34:08;20.40;51.10
17437;DHT22;73152;52.198;5.422;2023-11-18T00:36:37;20.40;51.10
17437;DHT22;73152;52.198;5.422;2023-11-18T00:39:05;20.40;51.10
17437;DHT22;73152;52.198;5.422;2023-11-18T00:41:34;20.40;51.10
17437;DHT22;73152;52.198;5.422;2023-11-18T00:44:06;20.40;51.10
17437;DHT22;73152;52.198;5.422;2023-11-18T00:46:35;20.40;51.10
17437;DHT22;73152;52.198;5.422;2023-11-18T00:49:04;20.40;51.10
17437;DHT22;73152;52.198;5.422;2023-11-18T00:51:33;20.40;51.10
17437;DHT22;73152;52.198;5.422;2023-11-18T00:54:03;20.40;51.10
17437;DHT22;73152;52.198;5.422;2023-11-18T00:56:32;20.40;51.10
17437;DHT22;73152;52.198;5.422;2023-11-18T00:59:01;20.40;51.10
17437;DHT22;73152;52.198;5.422;2023-11-18T01:01:34;20.40;51.10
17437;DHT22;73152;52.198;5.422;2023-11-18T01:04:04;20.40;51.10
17437;DHT22;73152;52.198;5.422;2023-11-18T01:06:32;20.40;51.10
17437;DHT22;73152;52.198;5.422;2023-11-18T01:09:02;20.40;51.10
17437;DHT22;73152;52.198;5.422;2023-11-18T01:11:32;20.40;51.20
17437;DHT22;73152;52.198;5.422;2023-11-18T01:14:01;20.40;51.10
17437;DHT22;73152;52.198;5.422;2023-11-18T01:16:30;20.40;51.10
17437;DHT22;73152;52.198;5.422;2023-11-18T01:19:02;20.40;51.10
17437;DHT22;73152;52.198;5.422;2023-11-18T01:21:34;20.40;51.10
17437;DHT22;73152;52.198;5.422;2023-11-18T01:24:04;20.40;51.10
17437;DHT22;73152;52.198;5.422;2023-11-18T01:26:34;20.40;51.10
17437;DHT22;73152;52.198;5.422;2023-11-18T01:29:03;20.40;51.10
17437;DHT22;73152;52.198;5.422;2023-11-18T01:31:32;20.40;51.10
17437;DHT22;73152;52.198;5.422;2023-11-18T01:34:03;20.40;51.10
17437;DHT22;73152;52.198;5.422;2023-11-18T01:36:33;20.40;51.00
17437;DHT22;73152;52.198;5.422;2023-11-18T01:39:02;20.40;51.10
17437;DHT22;73152;52.198;5.422;2023-11-18T01:41:32;20.40;51.10
17437;DHT22;73152;52.198;5.422;2023-11-18T01:44:01;20.40;51.10
17437;DHT22;73152;52.198;5.422;2023-11-18T01:46:30;20.40;51.00
17437;DHT22;73152;52.198;5.422;2023-11-18T01:49:03;20.40;51.00
17437;DHT22;73152;52.198;5.422;2023-11-18T01:51:33;20.40;51.00
17437;DHT22;73152;52.198;5.422;2023-11-18T01:54:04;20.40;51.10
17437;DHT22;73152;52.198;5.422;2023-11-18T01:56:40;20.40;51.10
17437;DHT22;73152;52.198;5.422;2023-11-18T01:59:10;20.40;51.10
17437;DHT22;73152;52.198;5.422;2023-11-18T02:01:46;20.40;51.10
17437;DHT22;73152;52.198;5.422;2023-11-18T02:04:20;20.40;51.10
17437;DHT22;73152;52.198;5.422;2023-11-18T02:06:50;20.40;51.10
17437;DHT22;73152;52.198;5.422;2023-11-18T02:09:23;20.40;51.00
17437;DHT22;73152;52.198;5.422;2023-11-18T02:11:58;20.40;51.00
17437;DHT22;73152;52.198;5.422;2023-11-18T02:14:39;20.40;51.00
17437;DHT22;73152;52.198;5.422;2023-11-18T02:17:10;20.40;51.00
17437;DHT22;73152;52.198;5.422;2023-11-18T02:19:45;20.40;51.00
17437;DHT22;73152;52.198;5.422;2023-11-18T02:22:15;20.40;51.00
17437;DHT22;73152;52.198;5.422;2023-11-18T02:24:44;20.40;51.00
17437;DHT22;73152;52.198;5.422;2023-11-18T02:27:16;20.40;51.00
17437;DHT22;73152;52.198;5.422;2023-11-18T02:29:48;20.40;51.00
17437;DHT22;73152;52.198;5.422;2023-11-18T02:32:23;20.40;51.00
17437;DHT22;73152;52.198;5.422;2023-11-18T02:35:02;20.40;51.00
17437;DHT22;73152;52.198;5.422;2023-11-18T02:37:40;20.40;51.00
17437;DHT22;73152;52.198;5.422;2023-11-18T02:40:19;20.40;51.00
17437;DHT22;73152;52.198;5.422;2023-11-18T02:42:51;20.40;51.00
17437;DHT22;73152;52.198;5.422;2023-11-18T02:45:22;20.40;51.00
17437;DHT22;73152;52.198;5.422;2023-11-18T02:47:53;20.30;51.10
17437;DHT22;73152;52.198;5.422;2023-11-18T02:50:23;20.40;51.00
17437;DHT22;73152;52.198;5.422;2023-11-18T02:52:53;20.40;51.10
17437;DHT22;73152;52.198;5.422;2023-11-18T02:55:22;20.40;51.00
17437;DHT22;73152;52.198;5.422;2023-11-18T02:57:54;20.30;51.00
17437;DHT22;73152;52.198;5.422;2023-11-18T03:00:23;20.30;51.10
17437;DHT22;73152;52.198;5.422;2023-11-18T03:02:54;20.30;51.00
17437;DHT22;73152;52.198;5.422;2023-11-18T03:05:23;20.30;51.10
17437;DHT22;73152;52.198;5.422;2023-11-18T03:07:52;20.40;51.00
17437;DHT22;73152;52.198;5.422;2023-11-18T03:10:23;20.40;51.00
17437;DHT22;73152;52.198;5.422;2023-11-18T03:12:55;20.40;51.00
17437;DHT22;73152;52.198;5.422;2023-11-18T03:15:24;20.30;51.00
17437;DHT22;73152;52.198;5.422;2023-11-18T03:17:53;20.30;51.00
17437;DHT22;73152;52.198;5.422;2023-11-18T03:20:24;20.40;51.00
17437;DHT22;73152;52.198;5.422;2023-11-18T03:22:54;20.30;51.10
17437;DHT22;73152;52.198;5.422;2023-11-18T03:25:23;20.30;51.00
17437;DHT22;73152;52.198;5.422;2023-11-18T03:27:55;20.30;51.00
17437;DHT22;73152;52.198;5.422;2023-11-18T03:30:24;20.40;51.00
17437;DHT22;73152;52.198;5.422;2023-11-18T03:32:54;20.40;51.00
17437;DHT22;73152;52.198;5.422;2023-11-18T03:35:23;20.30;51.00
17437;DHT22;73152;52.198;5.422;2023-11-18T03:37:52;20.30;51.00
17437;DHT22;73152;52.198;5.422;2023-11-18T03:40:21;20.30;51.10
17437;DHT22;73152;52.198;5.422;2023-11-18T03:42:50;20.30;51.10
17437;DHT22;73152;52.198;5.422;2023-11-18T03:45:22;20.30;51.10
17437;DHT22;73152;52.198;5.422;2023-11-18T03:47:51;20.30;51.10
17437;DHT22;73152;52.198;5.422;2023-11-18T03:50:19;20.30;51.00
17437;DHT22;73152;52.198;5.422;2023-11-18T03:52:48;20.30;51.10
17437;DHT22;73152;52.198;5.422;2023-11-18T03:55:17;20.30;51.10
17437;DHT22;73152;52.198;5.422;2023-11-18T03:57:46;20.30;51.10
17437;DHT22;73152;52.198;5.422;2023-11-18T04:00:16;20.30;51.10
17437;DHT22;73152;52.198;5.422;2023-11-18T04:02:48;20.30;51.00
17437;DHT22;73152;52.198;5.422;2023-11-18T04:05:17;20.30;51.00
17437;DHT22;73152;52.198;5.422;2023-11-18T04:07:46;20.30;51.00
17437;DHT22;73152;52.198;5.422;2023-11-18T04:10:15;20.30;51.00
17437;DHT22;73152;52.198;5.422;2023-11-18T04:12:45;20.30;51.00
17437;DHT22;73152;52.198;5.422;2023-11-18T04:15:14;20.30;51.00
17437;DHT22;73152;52.198;5.422;2023-11-18T04:17:43;20.30;51.00
17437;DHT22;73152;52.198;5.422;2023-11-18T04:20:15;20.30;51.00
17437;DHT22;73152;52.198;5.422;2023-11-18T04:22:44;20.30;51.00
17437;DHT22;73152;52.198;5.422;2023-11-18T04:25:13;20.30;51.00
17437;DHT22;73152;52.198;5.422;2023-11-18T04:27:42;20.30;51.00
17437;DHT22;73152;52.198;5.422;2023-11-18T04:30:11;20.30;51.00
17437;DHT22;73152;52.198;5.422;2023-11-18T04:32:41;20.30;51.00
17437;DHT22;73152;52.198;5.422;2023-11-18T04:35:10;20.30;51.00
17437;DHT22;73152;52.198;5.422;2023-11-18T04:37:42;20.30;50.90
17437;DHT22;73152;52.198;5.422;2023-11-18T04:40:11;20.30;50.90
17437;DHT22;73152;52.198;5.422;2023-11-18T04:42:41;20.30;50.90
17437;DHT22;73152;52.198;5.422;2023-11-18T04:45:10;20.30;50.90
17437;DHT22;73152;52.198;5.422;2023-11-18T04:47:40;20.30;50.90
17437;DHT22;73152;52.198;5.422;2023-11-18T04:50:10;20.30;50.80
17437;DHT22;73152;52.198;5.422;2023-11-18T04:52:43;20.30;50.80
17437;DHT22;73152;52.198;5.422;2023-11-18T04:55:11;20.30;50.80
17437;DHT22;73152;52.198;5.422;2023-11-18T04:57:41;20.30;50.90
17437;DHT22;73152;52.198;5.422;2023-11-18T05:00:12;20.30;50.90
17437;DHT22;73152;52.198;5.422;2023-11-18T05:02:43;20.30;50.80
17437;DHT22;73152;52.198;5.422;2023-11-18T05:05:13;20.30;50.80
17437;DHT22;73152;52.198;5.422;2023-11-18T05:07:45;20.30;50.90
17437;DHT22;73152;52.198;5.422;2023-11-18T05:10:14;20.30;50.90
17437;DHT22;73152;52.198;5.422;2023-11-18T05:12:44;20.30;50.90
17437;DHT22;73152;52.198;5.422;2023-11-18T05:15:22;20.30;50.90
17437;DHT22;73152;52.198;5.422;2023-11-18T05:17:52;20.30;50.90
17437;DHT22;73152;52.198;5.422;2023-11-18T05:20:22;20.30;50.80
17437;DHT22;73152;52.198;5.422;2023-11-18T05:22:54;20.30;50.80
17437;DHT22;73152;52.198;5.422;2023-11-18T05:25:22;20.30;50.80
17437;DHT22;73152;52.198;5.422;2023-11-18T05:27:51;20.30;50.80
17437;DHT22;73152;52.198;5.422;2023-11-18T05:30:20;20.30;50.80
17437;DHT22;73152;52.198;5.422;2023-11-18T05:32:49;20.30;50.80
17437;DHT22;73152;52.198;5.422;2023-11-18T05:35:18;20.30;50.90
17437;DHT22;73152;52.198;5.422;2023-11-18T05:37:56;20.30;50.90
17437;DHT22;73152;52.198;5.422;2023-11-18T05:40:25;20.30;50.90
17437;DHT22;73152;52.198;5.422;2023-11-18T05:42:56;20.30;50.90
17437;DHT22;73152;52.198;5.422;2023-11-18T05:45:27;20.30;50.90
17437;DHT22;73152;52.198;5.422;2023-11-18T05:48:09;20.30;50.80
17437;DHT22;73152;52.198;5.422;2023-11-18T05:50:38;20.30;50.90
17437;DHT22;73152;52.198;5.422;2023-11-18T05:53:10;20.30;50.80
17437;DHT22;73152;52.198;5.422;2023-11-18T05:55:39;20.30;50.90
17437;DHT22;73152;52.198;5.422;2023-11-18T05:58:07;20.30;50.80
17437;DHT22;73152;52.198;5.422;2023-11-18T06:00:37;20.30;50.90
17437;DHT22;73152;52.198;5.422;2023-11-18T06:03:05;20.30;50.80
17437;DHT22;73152;52.198;5.422;2023-11-18T06:05:35;20.30;50.80
17437;DHT22;73152;52.198;5.422;2023-11-18T06:08:04;20.30;50.80
17437;DHT22;73152;52.198;5.422;2023-11-18T06:10:36;20.30;50.80
17437;DHT22;73152;52.198;5.422;2023-11-18T06:13:04;20.30;50.80
17437;DHT22;73152;52.198;5.422;2023-11-18T06:15:34;20.30;50.80
17437;DHT22;73152;52.198;5.422;2023-11-18T06:18:04;20.30;50.80
17437;DHT22;73152;52.198;5.422;2023-11-18T06:20:34;20.30;50.80
17437;DHT22;73152;52.198;5.422;2023-11-18T06:23:04;20.30;50.80
17437;DHT22;73152;52.198;5.422;2023-11-18T06:25:32;20.30;50.80
17437;DHT22;73152;52.198;5.422;2023-11-18T06:28:04;20.30;50.70
17437;DHT22;73152;52.198;5.422;2023-11-18T06:30:33;20.30;50.70
17437;DHT22;73152;52.198;5.422;2023-11-18T06:33:02;20.30;50.70
17437;DHT22;73152;52.198;5.422;2023-11-18T06:35:31;20.30;50.70
17437;DHT22;73152;52.198;5.422;2023-11-18T06:38:01;20.30;50.60
17437;DHT22;73152;52.198;5.422;2023-11-18T06:40:30;20.30;50.60
17437;DHT22;73152;52.198;5.422;2023-11-18T06:43:00;20.30;50.60
17437;DHT22;73152;52.198;5.422;2023-11-18T06:45:36;20.30;50.60
17437;DHT22;73152;52.198;5.422;2023-11-18T06:48:05;20.30;50.50
17437;DHT22;73152;52.198;5.422;2023-11-18T06:50:34;20.30;50.50
17437;DHT22;73152;52.198;5.422;2023-11-18T06:53:05;20.30;50.40
17437;DHT22;73152;52.198;5.422;2023-11-18T06:55:34;20.30;50.40
17437;DHT22;73152;52.198;5.422;2023-11-18T06:58:06;20.30;50.50
17437;DHT22;73152;52.198;5.422;2023-11-18T07:00:36;20.30;50.90
17437;DHT22;73152;52.198;5.422;2023-11-18T07:03:05;20.30;51.10
17437;DHT22;73152;52.198;5.422;2023-11-18T07:05:34;20.30;51.30
17437;DHT22;73152;52.198;5.422;2023-11-18T07:08:03;20.40;51.40
17437;DHT22;73152;52.198;5.422;2023-11-18T07:10:34;20.40;51.40
17437;DHT22;73152;52.198;5.422;2023-11-18T07:13:06;20.40;51.50
17437;DHT22;73152;52.198;5.422;2023-11-18T07:15:36;20.40;51.50
17437;DHT22;73152;52.198;5.422;2023-11-18T07:18:05;20.40;51.50
17437;DHT22;73152;52.198;5.422;2023-11-18T07:20:34;20.40;51.50
17437;DHT22;73152;52.198;5.422;2023-11-18T07:23:03;20.40;51.50
17437;DHT22;73152;52.198;5.422;2023-11-18T07:25:34;20.40;51.60
17437;DHT22;73152;52.198;5.422;2023-11-18T07:28:06;20.40;51.60
17437;DHT22;73152;52.198;5.422;2023-11-18T07:30:35;20.40;51.60
17437;DHT22;73152;52.198;5.422;2023-11-18T07:33:04;20.50;51.60
17437;DHT22;73152;52.198;5.422;2023-11-18T07:35:34;20.50;51.50
17437;DHT22;73152;52.198;5.422;2023-11-18T07:38:04;20.40;51.50
17437;DHT22;73152;52.198;5.422;2023-11-18T07:40:33;20.50;51.40
17437;DHT22;73152;52.198;5.422;2023-11-18T07:43:06;20.50;51.50
17437;DHT22;73152;52.198;5.422;2023-11-18T07:45:37;20.50;51.50
17437;DHT22;73152;52.198;5.422;2023-11-18T07:48:08;20.50;51.50
17437;DHT22;73152;52.198;5.422;2023-11-18T07:50:39;20.50;51.40
17437;DHT22;73152;52.198;5.422;2023-11-18T07:53:10;20.50;51.40
17437;DHT22;73152;52.198;5.422;2023-11-18T07:55:39;20.50;51.50
17437;DHT22;73152;52.198;5.422;2023-11-18T07:58:11;20.60;51.50
17437;DHT22;73152;52.198;5.422;2023-11-18T08:00:41;20.60;51.60
17437;DHT22;73152;52.198;5.422;2023-11-18T08:03:11;20.60;51.70
17437;DHT22;73152;52.198;5.422;2023-11-18T08:05:41;20.60;51.60
17437;DHT22;73152;52.198;5.422;2023-11-18T08:08:11;20.60;51.60
17437;DHT22;73152;52.198;5.422;2023-11-18T08:10:42;20.60;51.40
17437;DHT22;73152;52.198;5.422;2023-11-18T08:13:16;20.60;51.30
17437;DHT22;73152;52.198;5.422;2023-11-18T08:15:45;20.60;51.20
17437;DHT22;73152;52.198;5.422;2023-11-18T08:18:14;20.60;51.10
17437;DHT22;73152;52.198;5.422;2023-11-18T08:20:44;20.60;51.00
17437;DHT22;73152;52.198;5.422;2023-11-18T08:23:13;20.60;50.90
17437;DHT22;73152;52.198;5.422;2023-11-18T08:25:42;20.60;50.80
17437;DHT22;73152;52.198;5.422;2023-11-18T08:28:12;20.60;50.60
17437;DHT22;73152;52.198;5.422;2023-11-18T08:30:44;20.60;50.60
17437;DHT22;73152;52.198;5.422;2023-11-18T08:33:14;20.60;50.50
17437;DHT22;73152;52.198;5.422;2023-11-18T08:35:43;20.60;50.40
17437;DHT22;73152;52.198;5.422;2023-11-18T08:38:13;20.60;50.40
17437;DHT22;73152;52.198;5.422;2023-11-18T08:40:42;20.60;50.40
17437;DHT22;73152;52.198;5.422;2023-11-18T08:43:14;20.60;50.30
17437;DHT22;73152;52.198;5.422;2023-11-18T08:45:45;20.60;50.30
17437;DHT22;73152;52.198;5.422;2023-11-18T08:48:15;20.60;50.20
17437;DHT22;73152;52.198;5.422;2023-11-18T08:50:44;20.60;50.20
17437;DHT22;73152;52.198;5.422;2023-11-18T08:53:13;20.60;50.20
17437;DHT22;73152;52.198;5.422;2023-11-18T08:55:44;20.60;50.10
17437;DHT22;73152;52.198;5.422;2023-11-18T08:58:17;20.60;50.10
17437;DHT22;73152;52.198;5.422;2023-11-18T09:00:51;20.60;50.10
17437;DHT22;73152;52.198;5.422;2023-11-18T09:03:22;20.60;50.10
17437;DHT22;73152;52.198;5.422;2023-11-18T09:06:06;20.60;50.00
17437;DHT22;73152;52.198;5.422;2023-11-18T09:08:43;20.60;50.00
17437;DHT22;73152;52.198;5.422;2023-11-18T09:11:19;20.60;49.90
17437;DHT22;73152;52.198;5.422;2023-11-18T09:13:50;20.60;49.90
17437;DHT22;73152;52.198;5.422;2023-11-18T09:16:22;20.60;49.90
17437;DHT22;73152;52.198;5.422;2023-11-18T09:18:55;20.60;49.90
17437;DHT22;73152;52.198;5.422;2023-11-18T09:21:25;20.60;49.90
17437;DHT22;73152;52.198;5.422;2023-11-18T09:23:55;20.60;49.80
17437;DHT22;73152;52.198;5.422;2023-11-18T09:26:24;20.60;49.80
17437;DHT22;73152;52.198;5.422;2023-11-18T09:28:55;20.70;49.80
17437;DHT22;73152;52.198;5.422;2023-11-18T09:31:29;20.60;49.80
17437;DHT22;73152;52.198;5.422;2023-11-18T09:33:59;20.60;49.80
17437;DHT22;73152;52.198;5.422;2023-11-18T09:36:32;20.60;49.70
17437;DHT22;73152;52.198;5.422;2023-11-18T09:39:02;20.60;49.80
17437;DHT22;73152;52.198;5.422;2023-11-18T09:41:33;20.70;49.80
17437;DHT22;73152;52.198;5.422;2023-11-18T09:44:06;20.60;49.80
17437;DHT22;73152;52.198;5.422;2023-11-18T09:46:42;20.60;49.90
17437;DHT22;73152;52.198;5.422;2023-11-18T09:49:26;20.60;50.20
17437;DHT22;73152;52.198;5.422;2023-11-18T09:51:59;20.50;50.40
17437;DHT22;73152;52.198;5.422;2023-11-18T09:54:39;20.40;50.50
17437;DHT22;73152;52.198;5.422;2023-11-18T09:57:26;20.50;50.60
17437;DHT22;73152;52.198;5.422;2023-11-18T10:00:05;20.40;50.70
17437;DHT22;73152;52.198;5.422;2023-11-18T10:02:48;20.40;50.70
17437;DHT22;73152;52.198;5.422;2023-11-18T10:05:19;20.40;50.70
17437;DHT22;73152;52.198;5.422;2023-11-18T10:07:52;20.40;50.80
17437;DHT22;73152;52.198;5.422;2023-11-18T10:10:24;20.40;50.80
17437;DHT22;73152;52.198;5.422;2023-11-18T10:13:02;20.40;50.80
17437;DHT22;73152;52.198;5.422;2023-11-18T10:15:44;20.40;50.80
17437;DHT22;73152;52.198;5.422;2023-11-18T10:18:16;20.40;50.90
17437;DHT22;73152;52.198;5.422;2023-11-18T10:20:48;20.40;50.90
17437;DHT22;73152;52.198;5.422;2023-11-18T10:23:20;20.40;50.90
17437;DHT22;73152;52.198;5.422;2023-11-18T10:25:55;20.40;51.00
17437;DHT22;73152;52.198;5.422;2023-11-18T10:28:27;20.40;50.90
17437;DHT22;73152;52.198;5.422;2023-11-18T10:30:59;20.40;50.90
17437;DHT22;73152;52.198;5.422;2023-11-18T10:33:35;20.30;51.00
17437;DHT22;73152;52.198;5.422;2023-11-18T10:36:19;20.30;50.90
17437;DHT22;73152;52.198;5.422;2023-11-18T10:38:51;20.30;50.90
17437;DHT22;73152;52.198;5.422;2023-11-18T10:41:22;20.30;51.00
17437;DHT22;73152;52.198;5.422;2023-11-18T10:44:05;20.30;50.90
17437;DHT22;73152;52.198;5.422;2023-11-18T10:46:40;20.30;50.90
17437;DHT22;73152;52.198;5.422;2023-11-18T10:49:15;20.30;50.90
17437;DHT22;73152;52.198;5.422;2023-11-18T10:51:44;20.30;50.90
17437;DHT22;73152;52.198;5.422;2023-11-18T10:54:14;20.30;50.80
17437;DHT22;73152;52.198;5.422;2023-11-18T10:56:47;20.20;50.80
17437;DHT22;73152;52.198;5.422;2023-11-18T10:59:22;20.30;50.90
17437;DHT22;73152;52.198;5.422;2023-11-18T11:01:52;20.20;51.00
17437;DHT22;73152;52.198;5.422;2023-11-18T11:04:26;20.30;51.00
17437;DHT22;73152;52.198;5.422;2023-11-18T11:06:55;20.30;51.00
17437;DHT22;73152;52.198;5.422;2023-11-18T11:09:26;20.30;51.00
17437;DHT22;73152;52.198;5.422;2023-11-18T11:12:07;20.30;51.30
17437;DHT22;73152;52.198;5.422;2023-11-18T11:14:46;20.30;51.20
17437;DHT22;73152;52.198;5.422;2023-11-18T11:17:27;20.30;51.70
17437;DHT22;73152;52.198;5.422;2023-11-18T11:20:05;20.20;51.70
17437;DHT22;73152;52.198;5.422;2023-11-18T11:22:58;20.20;51.80
17437;DHT22;73152;52.198;5.422;2023-11-18T11:25:42;20.20;51.80
17437;DHT22;73152;52.198;5.422;2023-11-18T11:28:20;20.10;51.90
17437;DHT22;73152;52.198;5.422;2023-11-18T11:30:55;20.10;51.80
17437;DHT22;73152;52.198;5.422;2023-11-18T11:33:33;20.10;51.70
17437;DHT22;73152;52.198;5.422;2023-11-18T11:36:12;20.10;51.80
17437;DHT22;73152;52.198;5.422;2023-11-18T11:38:49;20.10;51.80
17437;DHT22;73152;52.198;5.422;2023-11-18T11:41:22;20.10;51.70
17437;DHT22;73152;52.198;5.422;2023-11-18T11:43:53;20.10;51.80
17437;DHT22;73152;52.198;5.422;2023-11-18T11:46:24;20.10;51.90
17437;DHT22;73152;52.198;5.422;2023-11-18T11:49:00;20.10;52.00
17437;DHT22;73152;52.198;5.422;2023-11-18T11:51:47;20.10;52.10
17437;DHT22;73152;52.198;5.422;2023-11-18T11:54:23;20.00;52.20
17437;DHT22;73152;52.198;5.422;2023-11-18T11:56:56;20.00;52.20
17437;DHT22;73152;52.198;5.422;2023-11-18T11:59:55;20.10;52.20
17437;DHT22;73152;52.198;5.422;2023-11-18T12:02:26;20.10;52.10
17437;DHT22;73152;52.198;5.422;2023-11-18T12:04:58;20.10;52.10
17437;DHT22;73152;52.198;5.422;2023-11-18T12:07:35;20.10;52.20
17437;DHT22;73152;52.198;5.422;2023-11-18T12:10:09;20.10;52.20
17437;DHT22;73152;52.198;5.422;2023-11-18T12:12:46;20.10;52.20
17437;DHT22;73152;52.198;5.422;2023-11-18T12:15:49;20.20;52.30
17437;DHT22;73152;52.198;5.422;2023-11-18T12:18:22;20.20;52.40
17437;DHT22;73152;52.198;5.422;2023-11-18T12:20:52;20.20;52.40
17437;DHT22;73152;52.198;5.422;2023-11-18T12:23:30;20.20;52.60
17437;DHT22;73152;52.198;5.422;2023-11-18T12:26:00;20.20;52.50
17437;DHT22;73152;52.198;5.422;2023-11-18T12:28:29;20.20;52.50
17437;DHT22;73152;52.198;5.422;2023-11-18T12:31:01;20.20;52.50
17437;DHT22;73152;52.198;5.422;2023-11-18T12:36:54;20.20;52.60
17437;DHT22;73152;52.198;5.422;2023-11-18T12:40:03;20.30;52.60
17437;DHT22;73152;52.198;5.422;2023-11-18T12:43:01;20.20;52.60
17437;DHT22;73152;52.198;5.422;2023-11-18T12:46:02;20.20;52.70
17437;DHT22;73152;52.198;5.422;2023-11-18T12:48:57;20.20;52.60
17437;DHT22;73152;52.198;5.422;2023-11-18T12:51:31;20.30;52.60
17437;DHT22;73152;52.198;5.422;2023-11-18T12:54:02;20.30;52.70
17437;DHT22;73152;52.198;5.422;2023-11-18T12:56:36;20.40;52.40
17437;DHT22;73152;52.198;5.422;2023-11-18T12:59:09;20.40;52.20
17437;DHT22;73152;52.198;5.422;2023-11-18T13:01:38;20.50;52.10
17437;DHT22;73152;52.198;5.422;2023-11-18T13:04:08;20.50;51.90
17437;DHT22;73152;52.198;5.422;2023-11-18T13:06:37;20.50;51.80
17437;DHT22;73152;52.198;5.422;2023-11-18T13:09:08;20.40;51.90
17437;DHT22;73152;52.198;5.422;2023-11-18T13:11:53;20.40;52.20
17437;DHT22;73152;52.198;5.422;2023-11-18T13:14:25;20.40;52.20
17437;DHT22;73152;52.198;5.422;2023-11-18T13:16:56;20.30;52.30
17437;DHT22;73152;52.198;5.422;2023-11-18T13:19:26;20.30;52.20
17437;DHT22;73152;52.198;5.422;2023-11-18T13:21:58;20.30;52.20
17437;DHT22;73152;52.198;5.422;2023-11-18T13:24:29;20.30;52.30
17437;DHT22;73152;52.198;5.422;2023-11-18T13:27:01;20.30;52.20
17437;DHT22;73152;52.198;5.422;2023-11-18T13:29:32;20.30;52.30
17437;DHT22;73152;52.198;5.422;2023-11-18T13:32:06;20.30;52.30
17437;DHT22;73152;52.198;5.422;2023-11-18T13:34:35;20.30;52.20
17437;DHT22;73152;52.198;5.422;2023-11-18T13:37:07;20.30;52.20
17437;DHT22;73152;52.198;5.422;2023-11-18T13:39:38;20.30;52.30
17437;DHT22;73152;52.198;5.422;2023-11-18T13:42:23;20.30;52.30
17437;DHT22;73152;52.198;5.422;2023-11-18T13:44:59;20.30;52.30
17437;DHT22;73152;52.198;5.422;2023-11-18T13:47:32;20.30;52.30
17437;DHT22;73152;52.198;5.422;2023-11-18T13:50:06;20.30;52.30
17437;DHT22;73152;52.198;5.422;2023-11-18T13:52:36;20.30;52.20
17437;DHT22;73152;52.198;5.422;2023-11-18T13:55:07;20.30;52.30
17437;DHT22;73152;52.198;5.422;2023-11-18T13:57:45;20.30;52.30
17437;DHT22;73152;52.198;5.422;2023-11-18T14:00:16;20.30;52.20
17437;DHT22;73152;52.198;5.422;2023-11-18T14:02:48;20.30;52.20
17437;DHT22;73152;52.198;5.422;2023-11-18T14:05:18;20.30;52.30
17437;DHT22;73152;52.198;5.422;2023-11-18T14:07:47;20.30;52.20
17437;DHT22;73152;52.198;5.422;2023-11-18T14:10:16;20.20;52.30
17437;DHT22;73152;52.198;5.422;2023-11-18T14:13:03;20.20;52.40
17437;DHT22;73152;52.198;5.422;2023-11-18T14:15:37;20.30;52.40
17437;DHT22;73152;52.198;5.422;2023-11-18T14:18:09;20.30;52.50
17437;DHT22;73152;52.198;5.422;2023-11-18T14:20:39;20.20;52.50
17437;DHT22;73152;52.198;5.422;2023-11-18T14:23:08;20.20;52.60
17437;DHT22;73152;52.198;5.422;2023-11-18T14:25:37;20.20;52.60
17437;DHT22;73152;52.198;5.422;2023-11-18T14:28:08;20.20;52.60
17437;DHT22;73152;52.198;5.422;2023-11-18T14:30:38;20.20;52.50
17437;DHT22;73152;52.198;5.422;2023-11-18T14:33:08;20.20;52.50
17437;DHT22;73152;52.198;5.422;2023-11-18T14:35:37;20.30;52.50
17437;DHT22;73152;52.198;5.422;2023-11-18T14:38:06;20.30;52.60
17437;DHT22;73152;52.198;5.422;2023-11-18T14:40:36;20.30;52.70
17437;DHT22;73152;52.198;5.422;2023-11-18T14:43:08;20.30;52.70
17437;DHT22;73152;52.198;5.422;2023-11-18T14:45:37;20.30;52.70
17437;DHT22;73152;52.198;5.422;2023-11-18T14:48:06;20.40;52.60
17437;DHT22;73152;52.198;5.422;2023-11-18T14:50:34;20.30;52.60
17437;DHT22;73152;52.198;5.422;2023-11-18T14:53:04;20.30;52.50
17437;DHT22;73152;52.198;5.422;2023-11-18T14:55:32;20.30;52.50
17437;DHT22;73152;52.198;5.422;2023-11-18T14:58:02;20.30;52.50
17437;DHT22;73152;52.198;5.422;2023-11-18T15:00:35;20.30;52.40
17437;DHT22;73152;52.198;5.422;2023-11-18T15:03:05;20.40;52.40
17437;DHT22;73152;52.198;5.422;2023-11-18T15:05:34;20.40;52.30
17437;DHT22;73152;52.198;5.422;2023-11-18T15:08:04;20.40;52.30
17437;DHT22;73152;52.198;5.422;2023-11-18T15:10:35;20.40;52.20
17437;DHT22;73152;52.198;5.422;2023-11-18T15:13:05;20.40;52.20
17437;DHT22;73152;52.198;5.422;2023-11-18T15:15:44;20.40;52.10
17437;DHT22;73152;52.198;5.422;2023-11-18T15:18:13;20.40;52.00
17437;DHT22;73152;52.198;5.422;2023-11-18T15:20:44;20.40;52.00
17437;DHT22;73152;52.198;5.422;2023-11-18T15:23:14;20.40;52.00
17437;DHT22;73152;52.198;5.422;2023-11-18T15:25:47;20.40;52.00
17437;DHT22;73152;52.198;5.422;2023-11-18T15:28:17;20.40;52.00
17437;DHT22;73152;52.198;5.422;2023-11-18T15:30:49;20.40;52.10
17437;DHT22;73152;52.198;5.422;2023-11-18T15:33:18;20.40;52.10
17437;DHT22;73152;52.198;5.422;2023-11-18T15:35:47;20.50;52.10
17437;DHT22;73152;52.198;5.422;2023-11-18T15:38:15;20.40;52.20
17437;DHT22;73152;52.198;5.422;2023-11-18T15:40:47;20.50;52.20
17437;DHT22;73152;52.198;5.422;2023-11-18T15:43:17;20.40;52.20
17437;DHT22;73152;52.198;5.422;2023-11-18T15:45:49;20.40;52.20
17437;DHT22;73152;52.198;5.422;2023-11-18T15:48:18;20.40;52.30
17437;DHT22;73152;52.198;5.422;2023-11-18T15:50:47;20.50;52.40
17437;DHT22;73152;52.198;5.422;2023-11-18T15:53:16;20.50;52.40
17437;DHT22;73152;52.198;5.422;2023-11-18T15:55:45;20.50;52.50
17437;DHT22;73152;52.198;5.422;2023-11-18T15:58:14;20.50;52.50
17437;DHT22;73152;52.198;5.422;2023-11-18T16:00:44;20.50;52.50
17437;DHT22;73152;52.198;5.422;2023-11-18T16:03:16;20.50;52.50